sensor_id;sensor_type;location;lat;lon;timestamp;P1;durP1;ratioP1;P2;durP2;ratioP2
14125;SDS011;7141;49.484;11.242;2023-05-07T00:01:13;3.13;;;2.77;;
14125;SDS011;7141;49.484;11.242;2023-05-07T00:03:39;5.63;;;2.97;;
14125;SDS011;7141;49.484;11.242;2023-05-07T00:06:05;4.13;;;2.60;;
14125;SDS011;7141;49.484;11.242;2023-05-07T00:08:31;5.47;;;2.87;;
14125;SDS011;7141;49.484;11.242;2023-05-07T00:10:57;4.63;;;3.00;;
14125;SDS011;7141;49.484;11.242;2023-05-07T00:13:23;3.90;;;3.10;;
14125;SDS011;7141;49.484;11.242;2023-05-07T00:15:49;5.07;;;2.60;;
14125;SDS011;7141;49.484;11.242;2023-05-07T00:18:15;4.77;;;2.73;;
14125;SDS011;7141;49.484;11.242;2023-05-07T00:20:41;4.50;;;2.70;;
14125;SDS011;7141;49.484;11.242;2023-05-07T00:23:07;4.70;;;2.70;;
14125;SDS011;7141;49.484;11.242;2023-05-07T00:25:33;3.30;;;2.70;;
14125;SDS011;7141;49.484;11.242;2023-05-07T00:27:59;3.33;;;2.70;;
14125;SDS011;7141;49.484;11.242;2023-05-07T00:30:28;4.40;;;2.67;;
14125;SDS011;7141;49.484;11.242;2023-05-07T00:32:54;2.97;;;2.40;;
14125;SDS011;7141;49.484;11.242;2023-05-07T00:35:20;2.87;;;2.50;;
14125;SDS011;7141;49.484;11.242;2023-05-07T00:37:46;3.30;;;2.80;;
14125;SDS011;7141;49.484;11.242;2023-05-07T00:40:13;2.73;;;2.43;;
14125;SDS011;7141;49.484;11.242;2023-05-07T00:42:39;3.63;;;2.50;;
14125;SDS011;7141;49.484;11.242;2023-05-07T00:45:05;5.07;;;2.60;;
14125;SDS011;7141;49.484;11.242;2023-05-07T00:47:34;3.50;;;2.97;;
14125;SDS011;7141;49.484;11.242;2023-05-07T00:50:00;4.13;;;2.80;;
14125;SDS011;7141;49.484;11.242;2023-05-07T00:52:26;4.33;;;3.10;;
14125;SDS011;7141;49.484;11.242;2023-05-07T00:54:52;3.57;;;2.50;;
14125;SDS011;7141;49.484;11.242;2023-05-07T00:57:18;3.40;;;2.73;;
14125;SDS011;7141;49.484;11.242;2023-05-07T00:59:45;2.90;;;2.47;;
14125;SDS011;7141;49.484;11.242;2023-05-07T01:02:11;3.27;;;2.50;;
14125;SDS011;7141;49.484;11.242;2023-05-07T01:04:37;3.83;;;2.57;;
14125;SDS011;7141;49.484;11.242;2023-05-07T01:07:03;3.00;;;2.70;;
14125;SDS011;7141;49.484;11.242;2023-05-07T01:09:29;3.30;;;2.60;;
14125;SDS011;7141;49.484;11.242;2023-05-07T01:11:55;6.30;;;2.70;;
14125;SDS011;7141;49.484;11.242;2023-05-07T01:14:22;3.73;;;2.90;;
14125;SDS011;7141;49.484;11.242;2023-05-07T01:16:48;4.07;;;2.60;;
14125;SDS011;7141;49.484;11.242;2023-05-07T01:19:18;4.17;;;2.80;;
14125;SDS011;7141;49.484;11.242;2023-05-07T01:21:47;3.20;;;2.90;;
14125;SDS011;7141;49.484;11.242;2023-05-07T01:24:14;6.40;;;2.53;;
14125;SDS011;7141;49.484;11.242;2023-05-07T01:26:40;4.67;;;2.63;;
14125;SDS011;7141;49.484;11.242;2023-05-07T01:29:06;3.50;;;2.80;;
14125;SDS011;7141;49.484;11.242;2023-05-07T01:31:32;4.30;;;3.10;;
14125;SDS011;7141;49.484;11.242;2023-05-07T01:33:59;3.83;;;2.60;;
14125;SDS011;7141;49.484;11.242;2023-05-07T01:36:25;4.20;;;2.80;;
14125;SDS011;7141;49.484;11.242;2023-05-07T01:38:53;3.27;;;2.97;;
14125;SDS011;7141;49.484;11.242;2023-05-07T01:41:19;4.63;;;3.00;;
14125;SDS011;7141;49.484;11.242;2023-05-07T01:43:46;5.67;;;3.07;;
14125;SDS011;7141;49.484;11.242;2023-05-07T01:46:12;3.77;;;3.03;;
14125;SDS011;7141;49.484;11.242;2023-05-07T01:48:39;4.43;;;3.33;;
14125;SDS011;7141;49.484;11.242;2023-05-07T01:51:06;5.47;;;3.53;;
14125;SDS011;7141;49.484;11.242;2023-05-07T01:53:35;4.00;;;3.03;;
14125;SDS011;7141;49.484;11.242;2023-05-07T01:56:01;3.50;;;3.10;;
14125;SDS011;7141;49.484;11.242;2023-05-07T01:58:27;4.10;;;3.30;;
14125;SDS011;7141;49.484;11.242;2023-05-07T02:00:53;3.83;;;3.50;;
14125;SDS011;7141;49.484;11.242;2023-05-07T02:03:19;3.37;;;3.00;;
14125;SDS011;7141;49.484;11.242;2023-05-07T02:05:45;5.53;;;3.33;;
14125;SDS011;7141;49.484;11.242;2023-05-07T02:08:11;3.83;;;3.53;;
14125;SDS011;7141;49.484;11.242;2023-05-07T02:10:37;6.23;;;3.70;;
14125;SDS011;7141;49.484;11.242;2023-05-07T02:13:03;4.43;;;3.57;;
14125;SDS011;7141;49.484;11.242;2023-05-07T02:15:29;6.27;;;3.77;;
14125;SDS011;7141;49.484;11.242;2023-05-07T02:18:13;3.80;;;3.40;;
14125;SDS011;7141;49.484;11.242;2023-05-07T02:20:39;4.30;;;3.87;;
14125;SDS011;7141;49.484;11.242;2023-05-07T02:23:05;5.03;;;3.97;;
14125;SDS011;7141;49.484;11.242;2023-05-07T02:25:31;4.47;;;4.07;;
14125;SDS011;7141;49.484;11.242;2023-05-07T02:27:57;5.97;;;3.60;;
14125;SDS011;7141;49.484;11.242;2023-05-07T02:30:24;4.83;;;3.83;;
14125;SDS011;7141;49.484;11.242;2023-05-07T02:32:50;4.53;;;4.00;;
14125;SDS011;7141;49.484;11.242;2023-05-07T02:35:16;5.60;;;4.00;;
14125;SDS011;7141;49.484;11.242;2023-05-07T02:37:43;8.90;;;4.57;;
14125;SDS011;7141;49.484;11.242;2023-05-07T02:40:09;5.53;;;4.20;;
14125;SDS011;7141;49.484;11.242;2023-05-07T02:42:35;5.10;;;3.90;;
14125;SDS011;7141;49.484;11.242;2023-05-07T02:45:01;5.10;;;4.50;;
14125;SDS011;7141;49.484;11.242;2023-05-07T02:47:27;5.10;;;4.53;;
14125;SDS011;7141;49.484;11.242;2023-05-07T02:49:53;5.97;;;4.60;;
14125;SDS011;7141;49.484;11.242;2023-05-07T02:52:20;5.37;;;4.63;;
14125;SDS011;7141;49.484;11.242;2023-05-07T02:54:46;5.83;;;4.27;;
14125;SDS011;7141;49.484;11.242;2023-05-07T02:57:11;6.23;;;4.40;;
14125;SDS011;7141;49.484;11.242;2023-05-07T02:59:37;5.37;;;4.77;;
14125;SDS011;7141;49.484;11.242;2023-05-07T03:02:03;7.07;;;5.97;;
14125;SDS011;7141;49.484;11.242;2023-05-07T03:04:30;7.23;;;5.30;;
14125;SDS011;7141;49.484;11.242;2023-05-07T03:06:56;8.03;;;4.97;;
14125;SDS011;7141;49.484;11.242;2023-05-07T03:09:22;7.13;;;4.93;;
14125;SDS011;7141;49.484;11.242;2023-05-07T03:11:48;5.40;;;4.90;;
14125;SDS011;7141;49.484;11.242;2023-05-07T03:14:14;6.53;;;5.37;;
14125;SDS011;7141;49.484;11.242;2023-05-07T03:16:40;7.77;;;5.50;;
14125;SDS011;7141;49.484;11.242;2023-05-07T03:19:06;5.90;;;5.13;;
14125;SDS011;7141;49.484;11.242;2023-05-07T03:21:32;6.37;;;5.73;;
14125;SDS011;7141;49.484;11.242;2023-05-07T03:23:59;8.30;;;5.37;;
14125;SDS011;7141;49.484;11.242;2023-05-07T03:26:25;7.63;;;5.77;;
14125;SDS011;7141;49.484;11.242;2023-05-07T03:28:51;8.40;;;5.93;;
14125;SDS011;7141;49.484;11.242;2023-05-07T03:31:17;7.57;;;6.13;;
14125;SDS011;7141;49.484;11.242;2023-05-07T03:33:53;7.67;;;6.87;;
14125;SDS011;7141;49.484;11.242;2023-05-07T03:36:19;9.57;;;6.03;;
14125;SDS011;7141;49.484;11.242;2023-05-07T03:38:45;8.17;;;6.33;;
14125;SDS011;7141;49.484;11.242;2023-05-07T03:41:11;8.70;;;6.43;;
14125;SDS011;7141;49.484;11.242;2023-05-07T03:43:37;9.07;;;6.03;;
14125;SDS011;7141;49.484;11.242;2023-05-07T03:46:03;9.07;;;6.40;;
14125;SDS011;7141;49.484;11.242;2023-05-07T03:48:29;8.27;;;6.60;;
14125;SDS011;7141;49.484;11.242;2023-05-07T03:50:56;7.37;;;6.50;;
14125;SDS011;7141;49.484;11.242;2023-05-07T03:53:22;9.93;;;7.10;;
14125;SDS011;7141;49.484;11.242;2023-05-07T03:55:48;8.07;;;7.27;;
14125;SDS011;7141;49.484;11.242;2023-05-07T03:58:14;9.40;;;7.57;;
14125;SDS011;7141;49.484;11.242;2023-05-07T04:00:40;7.67;;;6.80;;
14125;SDS011;7141;49.484;11.242;2023-05-07T04:03:06;8.00;;;6.53;;
14125;SDS011;7141;49.484;11.242;2023-05-07T04:05:32;12.33;;;8.07;;
14125;SDS011;7141;49.484;11.242;2023-05-07T04:07:58;8.60;;;6.90;;
14125;SDS011;7141;49.484;11.242;2023-05-07T04:10:25;8.83;;;7.50;;
14125;SDS011;7141;49.484;11.242;2023-05-07T04:12:51;9.83;;;7.90;;
14125;SDS011;7141;49.484;11.242;2023-05-07T04:15:17;8.63;;;7.73;;
14125;SDS011;7141;49.484;11.242;2023-05-07T04:17:43;8.63;;;7.73;;
14125;SDS011;7141;49.484;11.242;2023-05-07T04:20:09;8.83;;;7.03;;
14125;SDS011;7141;49.484;11.242;2023-05-07T04:22:36;8.30;;;6.87;;
14125;SDS011;7141;49.484;11.242;2023-05-07T04:25:02;9.23;;;7.43;;
14125;SDS011;7141;49.484;11.242;2023-05-07T04:27:28;9.53;;;7.07;;
14125;SDS011;7141;49.484;11.242;2023-05-07T04:29:54;9.87;;;7.83;;
14125;SDS011;7141;49.484;11.242;2023-05-07T04:32:21;11.40;;;7.93;;
14125;SDS011;7141;49.484;11.242;2023-05-07T04:34:47;8.67;;;7.60;;
14125;SDS011;7141;49.484;11.242;2023-05-07T04:37:13;8.43;;;7.20;;
14125;SDS011;7141;49.484;11.242;2023-05-07T04:39:39;9.40;;;7.80;;
14125;SDS011;7141;49.484;11.242;2023-05-07T04:42:05;9.13;;;7.23;;
14125;SDS011;7141;49.484;11.242;2023-05-07T04:44:33;9.57;;;7.83;;
14125;SDS011;7141;49.484;11.242;2023-05-07T04:46:59;8.87;;;7.33;;
14125;SDS011;7141;49.484;11.242;2023-05-07T04:49:26;9.30;;;7.27;;
14125;SDS011;7141;49.484;11.242;2023-05-07T04:51:52;8.43;;;7.10;;
14125;SDS011;7141;49.484;11.242;2023-05-07T04:54:18;9.07;;;7.40;;
14125;SDS011;7141;49.484;11.242;2023-05-07T04:56:44;8.30;;;7.33;;
14125;SDS011;7141;49.484;11.242;2023-05-07T04:59:10;10.43;;;7.53;;
14125;SDS011;7141;49.484;11.242;2023-05-07T05:01:36;9.40;;;8.47;;
14125;SDS011;7141;49.484;11.242;2023-05-07T05:04:02;8.93;;;7.13;;
14125;SDS011;7141;49.484;11.242;2023-05-07T05:06:28;9.17;;;6.80;;
14125;SDS011;7141;49.484;11.242;2023-05-07T05:08:55;7.77;;;6.90;;
14125;SDS011;7141;49.484;11.242;2023-05-07T05:11:21;8.83;;;6.90;;
14125;SDS011;7141;49.484;11.242;2023-05-07T05:13:47;8.03;;;7.00;;
14125;SDS011;7141;49.484;11.242;2023-05-07T05:16:14;8.40;;;7.50;;
14125;SDS011;7141;49.484;11.242;2023-05-07T05:18:40;11.20;;;7.77;;
14125;SDS011;7141;49.484;11.242;2023-05-07T05:21:06;7.70;;;6.87;;
14125;SDS011;7141;49.484;11.242;2023-05-07T05:23:33;11.70;;;7.73;;
14125;SDS011;7141;49.484;11.242;2023-05-07T05:25:59;8.30;;;7.07;;
14125;SDS011;7141;49.484;11.242;2023-05-07T05:28:25;9.27;;;7.60;;
14125;SDS011;7141;49.484;11.242;2023-05-07T05:30:52;9.23;;;7.40;;
14125;SDS011;7141;49.484;11.242;2023-05-07T05:33:18;9.30;;;7.97;;
14125;SDS011;7141;49.484;11.242;2023-05-07T05:35:44;10.60;;;8.40;;
14125;SDS011;7141;49.484;11.242;2023-05-07T05:38:10;11.03;;;7.23;;
14125;SDS011;7141;49.484;11.242;2023-05-07T05:40:36;8.43;;;7.53;;
14125;SDS011;7141;49.484;11.242;2023-05-07T05:43:02;8.03;;;6.90;;
14125;SDS011;7141;49.484;11.242;2023-05-07T05:45:28;13.87;;;7.80;;
14125;SDS011;7141;49.484;11.242;2023-05-07T05:47:55;10.10;;;7.13;;
14125;SDS011;7141;49.484;11.242;2023-05-07T05:50:22;8.50;;;7.27;;
14125;SDS011;7141;49.484;11.242;2023-05-07T05:52:48;7.73;;;6.83;;
14125;SDS011;7141;49.484;11.242;2023-05-07T05:55:14;10.27;;;6.83;;
14125;SDS011;7141;49.484;11.242;2023-05-07T05:57:40;9.47;;;7.30;;
14125;SDS011;7141;49.484;11.242;2023-05-07T06:00:06;9.43;;;7.43;;
14125;SDS011;7141;49.484;11.242;2023-05-07T06:02:33;11.00;;;7.67;;
14125;SDS011;7141;49.484;11.242;2023-05-07T06:04:59;9.90;;;7.13;;
14125;SDS011;7141;49.484;11.242;2023-05-07T06:07:25;8.33;;;6.73;;
14125;SDS011;7141;49.484;11.242;2023-05-07T06:09:51;10.10;;;7.33;;
14125;SDS011;7141;49.484;11.242;2023-05-07T06:12:17;8.13;;;6.77;;
14125;SDS011;7141;49.484;11.242;2023-05-07T06:14:43;12.30;;;7.53;;
14125;SDS011;7141;49.484;11.242;2023-05-07T06:17:09;8.30;;;7.03;;
14125;SDS011;7141;49.484;11.242;2023-05-07T06:19:35;8.13;;;7.27;;
14125;SDS011;7141;49.484;11.242;2023-05-07T06:22:01;9.07;;;6.60;;
14125;SDS011;7141;49.484;11.242;2023-05-07T06:24:27;7.63;;;6.83;;
14125;SDS011;7141;49.484;11.242;2023-05-07T06:26:53;7.90;;;7.10;;
14125;SDS011;7141;49.484;11.242;2023-05-07T06:29:19;10.30;;;7.77;;
14125;SDS011;7141;49.484;11.242;2023-05-07T06:31:45;7.60;;;6.73;;
14125;SDS011;7141;49.484;11.242;2023-05-07T06:34:11;7.30;;;6.57;;
14125;SDS011;7141;49.484;11.242;2023-05-07T06:36:40;11.50;;;6.93;;
14125;SDS011;7141;49.484;11.242;2023-05-07T06:39:06;9.07;;;7.00;;
14125;SDS011;7141;49.484;11.242;2023-05-07T06:41:32;8.40;;;6.73;;
14125;SDS011;7141;49.484;11.242;2023-05-07T06:44:00;7.23;;;6.50;;
14125;SDS011;7141;49.484;11.242;2023-05-07T06:46:26;7.77;;;6.97;;
14125;SDS011;7141;49.484;11.242;2023-05-07T06:48:52;11.30;;;7.07;;
14125;SDS011;7141;49.484;11.242;2023-05-07T06:51:19;6.93;;;6.33;;
14125;SDS011;7141;49.484;11.242;2023-05-07T06:53:45;7.23;;;5.97;;
14125;SDS011;7141;49.484;11.242;2023-05-07T06:56:11;7.77;;;6.27;;
14125;SDS011;7141;49.484;11.242;2023-05-07T06:58:37;9.57;;;7.00;;
14125;SDS011;7141;49.484;11.242;2023-05-07T07:01:03;11.20;;;6.87;;
14125;SDS011;7141;49.484;11.242;2023-05-07T07:03:29;7.90;;;6.67;;
14125;SDS011;7141;49.484;11.242;2023-05-07T07:05:55;8.23;;;6.77;;
14125;SDS011;7141;49.484;11.242;2023-05-07T07:08:21;9.67;;;6.73;;
14125;SDS011;7141;49.484;11.242;2023-05-07T07:10:47;7.93;;;6.50;;
14125;SDS011;7141;49.484;11.242;2023-05-07T07:13:14;7.47;;;6.43;;
14125;SDS011;7141;49.484;11.242;2023-05-07T07:15:40;8.93;;;7.17;;
14125;SDS011;7141;49.484;11.242;2023-05-07T07:18:06;10.10;;;7.20;;
14125;SDS011;7141;49.484;11.242;2023-05-07T07:20:32;7.40;;;6.43;;
14125;SDS011;7141;49.484;11.242;2023-05-07T07:22:58;7.20;;;6.43;;
14125;SDS011;7141;49.484;11.242;2023-05-07T07:25:24;7.10;;;6.40;;
14125;SDS011;7141;49.484;11.242;2023-05-07T07:27:50;9.60;;;7.37;;
14125;SDS011;7141;49.484;11.242;2023-05-07T07:30:16;11.13;;;6.23;;
14125;SDS011;7141;49.484;11.242;2023-05-07T07:32:42;10.10;;;6.30;;
14125;SDS011;7141;49.484;11.242;2023-05-07T07:35:08;7.30;;;6.07;;
14125;SDS011;7141;49.484;11.242;2023-05-07T07:37:34;7.00;;;6.30;;
14125;SDS011;7141;49.484;11.242;2023-05-07T07:40:00;10.73;;;6.63;;
14125;SDS011;7141;49.484;11.242;2023-05-07T07:42:26;7.13;;;6.30;;
14125;SDS011;7141;49.484;11.242;2023-05-07T07:44:54;10.30;;;6.47;;
14125;SDS011;7141;49.484;11.242;2023-05-07T07:47:20;9.40;;;6.30;;
14125;SDS011;7141;49.484;11.242;2023-05-07T07:49:47;7.43;;;5.83;;
14125;SDS011;7141;49.484;11.242;2023-05-07T07:52:13;8.73;;;6.20;;
14125;SDS011;7141;49.484;11.242;2023-05-07T07:54:39;6.60;;;5.90;;
14125;SDS011;7141;49.484;11.242;2023-05-07T07:57:05;8.17;;;6.20;;
14125;SDS011;7141;49.484;11.242;2023-05-07T07:59:31;10.37;;;6.60;;
14125;SDS011;7141;49.484;11.242;2023-05-07T08:01:57;8.57;;;5.90;;
14125;SDS011;7141;49.484;11.242;2023-05-07T08:04:23;8.33;;;6.17;;
14125;SDS011;7141;49.484;11.242;2023-05-07T08:06:49;8.80;;;6.23;;
14125;SDS011;7141;49.484;11.242;2023-05-07T08:09:15;6.87;;;6.17;;
14125;SDS011;7141;49.484;11.242;2023-05-07T08:11:41;6.83;;;5.80;;
14125;SDS011;7141;49.484;11.242;2023-05-07T08:14:07;6.70;;;5.77;;
14125;SDS011;7141;49.484;11.242;2023-05-07T08:16:33;6.57;;;5.33;;
14125;SDS011;7141;49.484;11.242;2023-05-07T08:18:59;9.23;;;5.77;;
14125;SDS011;7141;49.484;11.242;2023-05-07T08:21:25;6.37;;;5.77;;
14125;SDS011;7141;49.484;11.242;2023-05-07T08:23:51;6.67;;;5.73;;
14125;SDS011;7141;49.484;11.242;2023-05-07T08:26:17;7.30;;;5.93;;
14125;SDS011;7141;49.484;11.242;2023-05-07T08:28:43;6.17;;;5.30;;
14125;SDS011;7141;49.484;11.242;2023-05-07T08:31:09;6.10;;;5.60;;
14125;SDS011;7141;49.484;11.242;2023-05-07T08:33:35;7.83;;;6.60;;
14125;SDS011;7141;49.484;11.242;2023-05-07T08:36:02;6.13;;;5.30;;
14125;SDS011;7141;49.484;11.242;2023-05-07T08:38:28;9.37;;;5.80;;
14125;SDS011;7141;49.484;11.242;2023-05-07T08:40:54;5.97;;;5.17;;
14125;SDS011;7141;49.484;11.242;2023-05-07T08:43:20;6.53;;;5.30;;
14125;SDS011;7141;49.484;11.242;2023-05-07T08:45:47;9.37;;;6.00;;
14125;SDS011;7141;49.484;11.242;2023-05-07T08:48:16;8.03;;;5.83;;
14125;SDS011;7141;49.484;11.242;2023-05-07T08:50:42;8.17;;;5.97;;
14125;SDS011;7141;49.484;11.242;2023-05-07T08:53:08;7.00;;;6.27;;
14125;SDS011;7141;49.484;11.242;2023-05-07T08:55:34;7.50;;;5.93;;
14125;SDS011;7141;49.484;11.242;2023-05-07T08:58:00;7.00;;;6.27;;
14125;SDS011;7141;49.484;11.242;2023-05-07T09:00:26;6.97;;;6.27;;
14125;SDS011;7141;49.484;11.242;2023-05-07T09:02:53;8.33;;;6.50;;
14125;SDS011;7141;49.484;11.242;2023-05-07T09:05:19;8.17;;;6.30;;
14125;SDS011;7141;49.484;11.242;2023-05-07T09:07:46;8.23;;;5.93;;
14125;SDS011;7141;49.484;11.242;2023-05-07T09:10:12;6.77;;;5.83;;
14125;SDS011;7141;49.484;11.242;2023-05-07T09:12:39;6.90;;;5.63;;
14125;SDS011;7141;49.484;11.242;2023-05-07T09:15:05;7.87;;;5.90;;
14125;SDS011;7141;49.484;11.242;2023-05-07T09:17:31;7.80;;;6.50;;
14125;SDS011;7141;49.484;11.242;2023-05-07T09:20:04;7.47;;;5.83;;
14125;SDS011;7141;49.484;11.242;2023-05-07T09:22:33;6.80;;;6.00;;
14125;SDS011;7141;49.484;11.242;2023-05-07T09:24:59;7.07;;;5.83;;
14125;SDS011;7141;49.484;11.242;2023-05-07T09:27:25;6.17;;;5.57;;
14125;SDS011;7141;49.484;11.242;2023-05-07T09:29:51;7.07;;;5.50;;
14125;SDS011;7141;49.484;11.242;2023-05-07T09:32:17;8.23;;;6.20;;
14125;SDS011;7141;49.484;11.242;2023-05-07T09:34:43;6.67;;;5.50;;
14125;SDS011;7141;49.484;11.242;2023-05-07T09:37:10;8.93;;;6.03;;
14125;SDS011;7141;49.484;11.242;2023-05-07T09:39:38;6.93;;;5.70;;
14125;SDS011;7141;49.484;11.242;2023-05-07T09:42:04;7.17;;;5.30;;
14125;SDS011;7141;49.484;11.242;2023-05-07T09:44:31;6.00;;;5.40;;
14125;SDS011;7141;49.484;11.242;2023-05-07T09:46:57;9.07;;;5.47;;
14125;SDS011;7141;49.484;11.242;2023-05-07T09:49:25;5.77;;;5.17;;
14125;SDS011;7141;49.484;11.242;2023-05-07T09:51:54;7.53;;;4.90;;
14125;SDS011;7141;49.484;11.242;2023-05-07T09:54:21;7.70;;;5.53;;
14125;SDS011;7141;49.484;11.242;2023-05-07T09:56:48;8.23;;;5.27;;
14125;SDS011;7141;49.484;11.242;2023-05-07T09:59:14;6.93;;;5.17;;
14125;SDS011;7141;49.484;11.242;2023-05-07T10:01:41;6.77;;;5.33;;
14125;SDS011;7141;49.484;11.242;2023-05-07T10:04:07;5.30;;;4.80;;
14125;SDS011;7141;49.484;11.242;2023-05-07T10:06:34;4.70;;;4.30;;
14125;SDS011;7141;49.484;11.242;2023-05-07T10:09:00;6.17;;;4.87;;
14125;SDS011;7141;49.484;11.242;2023-05-07T10:11:26;5.53;;;4.80;;
14125;SDS011;7141;49.484;11.242;2023-05-07T10:13:53;6.43;;;5.07;;
14125;SDS011;7141;49.484;11.242;2023-05-07T10:16:20;4.87;;;4.43;;
14125;SDS011;7141;49.484;11.242;2023-05-07T10:18:46;6.47;;;4.93;;
14125;SDS011;7141;49.484;11.242;2023-05-07T10:23:45;4.90;;;4.40;;
14125;SDS011;7141;49.484;11.242;2023-05-07T10:26:11;5.30;;;4.63;;
14125;SDS011;7141;49.484;11.242;2023-05-07T10:28:39;5.00;;;4.50;;
14125;SDS011;7141;49.484;11.242;2023-05-07T10:33:51;5.90;;;4.77;;
14125;SDS011;7141;49.484;11.242;2023-05-07T10:36:18;4.63;;;4.23;;
14125;SDS011;7141;49.484;11.242;2023-05-07T10:38:44;5.37;;;3.80;;
14125;SDS011;7141;49.484;11.242;2023-05-07T10:41:11;4.03;;;3.63;;
14125;SDS011;7141;49.484;11.242;2023-05-07T10:43:41;4.47;;;3.83;;
14125;SDS011;7141;49.484;11.242;2023-05-07T10:46:17;6.40;;;4.27;;
14125;SDS011;7141;49.484;11.242;2023-05-07T10:51:29;5.43;;;4.03;;
14125;SDS011;7141;49.484;11.242;2023-05-07T10:56:36;5.00;;;4.07;;
14125;SDS011;7141;49.484;11.242;2023-05-07T11:01:56;5.03;;;4.03;;
14125;SDS011;7141;49.484;11.242;2023-05-07T11:04:27;5.27;;;3.87;;
14125;SDS011;7141;49.484;11.242;2023-05-07T11:17:28;6.80;;;4.07;;
14125;SDS011;7141;49.484;11.242;2023-05-07T11:19:57;4.00;;;3.60;;
14125;SDS011;7141;49.484;11.242;2023-05-07T11:25:01;4.63;;;3.80;;
14125;SDS011;7141;49.484;11.242;2023-05-07T11:27:28;5.23;;;4.07;;
14125;SDS011;7141;49.484;11.242;2023-05-07T11:29:54;4.00;;;3.60;;
14125;SDS011;7141;49.484;11.242;2023-05-07T11:32:23;3.87;;;3.50;;
14125;SDS011;7141;49.484;11.242;2023-05-07T11:34:53;4.13;;;3.53;;
14125;SDS011;7141;49.484;11.242;2023-05-07T11:37:19;3.80;;;3.50;;
14125;SDS011;7141;49.484;11.242;2023-05-07T11:39:46;4.30;;;3.73;;
14125;SDS011;7141;49.484;11.242;2023-05-07T11:45:08;3.87;;;3.30;;
14125;SDS011;7141;49.484;11.242;2023-05-07T11:47:34;5.63;;;4.03;;
14125;SDS011;7141;49.484;11.242;2023-05-07T11:50:04;4.33;;;3.27;;
14125;SDS011;7141;49.484;11.242;2023-05-07T11:52:30;5.47;;;3.80;;
14125;SDS011;7141;49.484;11.242;2023-05-07T11:54:57;5.33;;;3.97;;
14125;SDS011;7141;49.484;11.242;2023-05-07T11:57:25;4.83;;;3.87;;
14125;SDS011;7141;49.484;11.242;2023-05-07T11:59:54;3.90;;;3.50;;
14125;SDS011;7141;49.484;11.242;2023-05-07T12:02:20;8.07;;;3.80;;
14125;SDS011;7141;49.484;11.242;2023-05-07T12:04:46;4.73;;;3.37;;
14125;SDS011;7141;49.484;11.242;2023-05-07T12:07:12;5.90;;;3.67;;
14125;SDS011;7141;49.484;11.242;2023-05-07T12:09:39;6.17;;;3.43;;
14125;SDS011;7141;49.484;11.242;2023-05-07T12:12:05;4.43;;;3.30;;
14125;SDS011;7141;49.484;11.242;2023-05-07T12:14:31;6.80;;;3.93;;
14125;SDS011;7141;49.484;11.242;2023-05-07T12:16:58;3.60;;;3.30;;
14125;SDS011;7141;49.484;11.242;2023-05-07T12:19:27;4.70;;;3.57;;
14125;SDS011;7141;49.484;11.242;2023-05-07T12:21:53;3.83;;;3.20;;
14125;SDS011;7141;49.484;11.242;2023-05-07T12:24:19;4.07;;;3.67;;
14125;SDS011;7141;49.484;11.242;2023-05-07T12:26:46;4.00;;;3.60;;
14125;SDS011;7141;49.484;11.242;2023-05-07T12:29:12;4.70;;;3.30;;
14125;SDS011;7141;49.484;11.242;2023-05-07T12:31:40;3.40;;;3.10;;
14125;SDS011;7141;49.484;11.242;2023-05-07T12:34:06;4.30;;;3.13;;
14125;SDS011;7141;49.484;11.242;2023-05-07T12:36:39;3.60;;;3.30;;
14125;SDS011;7141;49.484;11.242;2023-05-07T12:39:08;4.90;;;3.37;;
14125;SDS011;7141;49.484;11.242;2023-05-07T12:44:22;3.73;;;3.43;;
14125;SDS011;7141;49.484;11.242;2023-05-07T12:46:48;5.90;;;3.47;;
14125;SDS011;7141;49.484;11.242;2023-05-07T12:49:14;3.60;;;3.30;;
14125;SDS011;7141;49.484;11.242;2023-05-07T12:51:41;5.70;;;3.30;;
14125;SDS011;7141;49.484;11.242;2023-05-07T12:54:07;3.93;;;3.50;;
14125;SDS011;7141;49.484;11.242;2023-05-07T12:56:35;3.73;;;3.37;;
14125;SDS011;7141;49.484;11.242;2023-05-07T12:59:01;3.57;;;3.27;;
14125;SDS011;7141;49.484;11.242;2023-05-07T13:01:28;4.00;;;3.03;;
14125;SDS011;7141;49.484;11.242;2023-05-07T13:03:55;3.97;;;3.40;;
14125;SDS011;7141;49.484;11.242;2023-05-07T13:06:21;4.93;;;3.60;;
14125;SDS011;7141;49.484;11.242;2023-05-07T13:08:47;5.20;;;3.43;;
14125;SDS011;7141;49.484;11.242;2023-05-07T13:11:13;3.87;;;3.40;;
14125;SDS011;7141;49.484;11.242;2023-05-07T13:13:40;5.07;;;3.00;;
14125;SDS011;7141;49.484;11.242;2023-05-07T13:16:08;4.90;;;3.10;;
14125;SDS011;7141;49.484;11.242;2023-05-07T13:18:34;3.83;;;3.07;;
14125;SDS011;7141;49.484;11.242;2023-05-07T13:21:00;7.10;;;3.20;;
14125;SDS011;7141;49.484;11.242;2023-05-07T13:23:27;6.23;;;3.37;;
14125;SDS011;7141;49.484;11.242;2023-05-07T13:25:53;3.63;;;3.30;;
14125;SDS011;7141;49.484;11.242;2023-05-07T13:28:19;3.67;;;3.20;;
14125;SDS011;7141;49.484;11.242;2023-05-07T13:30:46;4.60;;;3.70;;
14125;SDS011;7141;49.484;11.242;2023-05-07T13:33:12;4.67;;;3.40;;
14125;SDS011;7141;49.484;11.242;2023-05-07T13:35:38;3.93;;;3.47;;
14125;SDS011;7141;49.484;11.242;2023-05-07T13:38:04;3.57;;;3.27;;
14125;SDS011;7141;49.484;11.242;2023-05-07T13:40:30;3.53;;;2.90;;
14125;SDS011;7141;49.484;11.242;2023-05-07T13:42:57;3.57;;;3.20;;
14125;SDS011;7141;49.484;11.242;2023-05-07T13:45:24;4.60;;;3.57;;
14125;SDS011;7141;49.484;11.242;2023-05-07T13:47:51;4.73;;;3.33;;
14125;SDS011;7141;49.484;11.242;2023-05-07T13:50:17;4.93;;;3.40;;
14125;SDS011;7141;49.484;11.242;2023-05-07T13:52:43;3.43;;;3.13;;
14125;SDS011;7141;49.484;11.242;2023-05-07T13:55:23;3.53;;;3.23;;
14125;SDS011;7141;49.484;11.242;2023-05-07T13:57:56;4.70;;;3.83;;
14125;SDS011;7141;49.484;11.242;2023-05-07T14:00:23;4.10;;;3.70;;
14125;SDS011;7141;49.484;11.242;2023-05-07T14:02:49;4.00;;;3.60;;
14125;SDS011;7141;49.484;11.242;2023-05-07T14:05:15;5.10;;;3.70;;
14125;SDS011;7141;49.484;11.242;2023-05-07T14:07:41;4.30;;;3.77;;
14125;SDS011;7141;49.484;11.242;2023-05-07T14:10:07;6.00;;;3.70;;
14125;SDS011;7141;49.484;11.242;2023-05-07T14:12:34;6.27;;;3.70;;
14125;SDS011;7141;49.484;11.242;2023-05-07T14:15:00;4.80;;;4.10;;
14125;SDS011;7141;49.484;11.242;2023-05-07T14:17:26;4.57;;;3.63;;
14125;SDS011;7141;49.484;11.242;2023-05-07T14:19:52;3.77;;;3.30;;
14125;SDS011;7141;49.484;11.242;2023-05-07T14:22:19;3.60;;;3.30;;
14125;SDS011;7141;49.484;11.242;2023-05-07T14:24:45;4.20;;;3.70;;
14125;SDS011;7141;49.484;11.242;2023-05-07T14:27:11;4.53;;;3.60;;
14125;SDS011;7141;49.484;11.242;2023-05-07T14:29:37;4.33;;;3.50;;
14125;SDS011;7141;49.484;11.242;2023-05-07T14:32:03;4.43;;;3.77;;
14125;SDS011;7141;49.484;11.242;2023-05-07T14:34:31;3.73;;;3.43;;
14125;SDS011;7141;49.484;11.242;2023-05-07T14:36:57;4.73;;;3.67;;
14125;SDS011;7141;49.484;11.242;2023-05-07T14:39:23;9.27;;;3.80;;
14125;SDS011;7141;49.484;11.242;2023-05-07T14:41:50;5.00;;;3.57;;
14125;SDS011;7141;49.484;11.242;2023-05-07T14:44:16;4.63;;;4.03;;
14125;SDS011;7141;49.484;11.242;2023-05-07T14:46:42;4.63;;;4.03;;
14125;SDS011;7141;49.484;11.242;2023-05-07T14:49:08;5.50;;;3.67;;
14125;SDS011;7141;49.484;11.242;2023-05-07T14:51:41;4.00;;;3.30;;
14125;SDS011;7141;49.484;11.242;2023-05-07T14:54:07;4.20;;;3.80;;
14125;SDS011;7141;49.484;11.242;2023-05-07T14:56:34;3.50;;;3.20;;
14125;SDS011;7141;49.484;11.242;2023-05-07T14:59:00;4.23;;;3.60;;
14125;SDS011;7141;49.484;11.242;2023-05-07T15:01:27;5.83;;;4.00;;
14125;SDS011;7141;49.484;11.242;2023-05-07T15:03:53;4.63;;;3.43;;
14125;SDS011;7141;49.484;11.242;2023-05-07T15:06:20;4.57;;;3.63;;
14125;SDS011;7141;49.484;11.242;2023-05-07T15:08:46;3.97;;;3.37;;
14125;SDS011;7141;49.484;11.242;2023-05-07T15:11:13;4.53;;;3.40;;
14125;SDS011;7141;49.484;11.242;2023-05-07T15:13:39;4.03;;;3.30;;
14125;SDS011;7141;49.484;11.242;2023-05-07T15:16:05;4.00;;;3.60;;